Time;durP1;ratioP1;P1;durP2;ratioP2;P2;SDS_P1;SDS_P2;PMS_P1;PMS_P2;Temp;Humidity;BMP_temperature;BMP_pressure;BME280_temperature;BME280_humidity;BME280_pressure;Samples;Min_cycle;Max_cycle;Signal;HPM_P1;HPM_P2
2022/04/17 01:42:52;;;;;;;3.97;2.70;;;6.30;69.80;;;;;;5052197;28;20380;-83
2022/04/17 01:45:38;;;;;;;3.00;2.30;;;6.30;71.20;;;;;;5045758;28;20467;-82
2022/04/17 01:48:24;;;;;;;4.03;2.10;;;6.20;71.80;;;;;;5047840;28;20486;-84
2022/04/17 01:51:09;;;;;;;4.07;2.10;;;6.10;72.90;;;;;;5044483;28;20440;-83
2022/04/17 01:53:55;;;;;;;3.07;2.27;;;6.10;73.70;;;;;;5048469;28;20463;-84
2022/04/17 01:56:42;;;;;;;2.93;2.13;;;6.20;73.00;;;;;;5042057;28;20587;-83
2022/04/17 01:59:28;;;;;;;4.40;2.20;;;6.10;73.70;;;;;;5048380;28;20564;-84
2022/04/17 02:02:14;;;;;;;4.40;2.30;;;6.00;73.90;;;;;;5044941;28;20426;-83
2022/04/17 02:05:00;;;;;;;3.10;2.10;;;6.10;74.30;;;;;;5044594;28;20461;-83
2022/04/17 02:07:46;;;;;;;8.43;2.30;;;6.10;74.30;;;;;;5043648;28;21839;-83
2022/04/17 02:10:31;;;;;;;3.83;2.00;;;5.90;75.00;;;;;;5044572;28;20438;-83
2022/04/17 02:13:17;;;;;;;4.90;1.83;;;5.90;75.30;;;;;;5046322;28;20941;-83
2022/04/17 02:16:04;;;;;;;3.37;2.10;;;5.70;75.50;;;;;;5046546;28;20475;-82
2022/04/17 02:18:52;;;;;;;6.70;2.33;;;5.60;76.10;;;;;;5045916;28;20468;-83
2022/04/17 02:21:38;;;;;;;3.80;1.93;;;5.60;76.10;;;;;;5045153;28;20437;-83
2022/04/17 02:24:24;;;;;;;8.70;2.70;;;5.80;77.00;;;;;;5040715;28;20504;-83
2022/04/17 02:27:09;;;;;;;4.83;2.30;;;5.80;75.30;;;;;;5042406;28;20444;-83
2022/04/17 02:29:55;;;;;;;4.10;1.90;;;5.70;76.50;;;;;;5043197;28;20463;-82
2022/04/17 02:32:42;;;;;;;4.87;2.43;;;5.80;76.90;;;;;;5038089;28;20447;-83
2022/04/17 02:35:28;;;;;;;4.23;2.23;;;5.70;76.10;;;;;;5044013;28;20450;-82
2022/04/17 02:38:14;;;;;;;5.13;2.57;;;5.80;76.20;;;;;;5044611;28;20430;-85
2022/04/17 02:41:00;;;;;;;2.90;1.93;;;5.80;76.70;;;;;;5048410;28;20448;-86
2022/04/17 02:43:45;;;;;;;2.97;2.30;;;5.80;77.00;;;;;;5046165;28;20467;-86
2022/04/17 02:49:35;;;;;;;4.70;2.50;;;5.70;76.20;;;;;;5047908;28;21011;-86
2022/04/17 02:52:21;;;;;;;3.03;1.77;;;5.80;75.90;;;;;;5045812;28;20451;-85
2022/04/17 02:55:07;;;;;;;5.47;1.90;;;5.90;76.50;;;;;;5043938;28;20471;-85
2022/04/17 02:57:54;;;;;;;4.70;2.50;;;5.70;76.50;;;;;;5043407;28;20953;-86
2022/04/17 03:05:36;;;;;;;5.00;2.20;;;5.70;76.80;;;;;;5047166;28;20446;-86
2022/04/17 03:06:51;;;;;;;4.53;2.83;;;5.70;76.30;;;;;;5040497;28;20490;-85
2022/04/17 03:09:37;;;;;;;4.80;2.50;;;5.80;76.20;;;;;;5043532;28;20526;-86
2022/04/17 03:12:23;;;;;;;4.07;2.70;;;5.90;76.50;;;;;;5047943;28;20493;-85
2022/04/17 03:15:10;;;;;;;3.17;2.53;;;5.60;76.20;;;;;;5038445;28;20479;-85
2022/04/17 03:17:56;;;;;;;4.43;2.70;;;5.60;77.40;;;;;;5047877;28;20451;-86
2022/04/17 03:20:41;;;;;;;3.40;2.47;;;5.50;77.80;;;;;;5046499;28;20422;-85
2022/04/17 03:23:29;;;;;;;5.90;3.13;;;5.50;77.80;;;;;;5044949;28;20917;-85
2022/04/17 03:26:15;;;;;;;7.70;2.80;;;5.40;78.20;;;;;;5040549;28;20818;-85
2022/04/17 03:29:00;;;;;;;3.80;2.53;;;5.30;78.40;;;;;;5043506;28;20480;-86
2022/04/17 03:31:46;;;;;;;4.03;2.70;;;5.20;79.30;;;;;;5044938;28;20510;-86
2022/04/17 03:34:32;;;;;;;4.40;2.93;;;5.30;78.80;;;;;;5040822;28;20603;-85
2022/04/17 03:37:18;;;;;;;4.70;2.90;;;5.60;77.50;;;;;;5046460;28;20438;-86
2022/04/17 03:40:06;;;;;;;3.63;2.60;;;5.50;77.40;;;;;;5044522;28;20414;-86
2022/04/17 03:42:52;;;;;;;3.33;2.37;;;5.30;77.30;;;;;;5040690;28;20427;-86
2022/04/17 03:45:37;;;;;;;7.53;3.13;;;5.30;77.60;;;;;;5045887;28;21035;-83
2022/04/17 03:48:23;;;;;;;3.33;2.33;;;4.90;78.50;;;;;;5051363;28;20434;-83
2022/04/17 03:51:09;;;;;;;3.50;2.47;;;4.90;78.90;;;;;;5051409;28;20443;-83
2022/04/17 03:53:55;;;;;;;5.57;3.17;;;4.80;80.30;;;;;;5048521;28;20488;-83
2022/04/17 03:56:43;;;;;;;3.63;2.67;;;4.80;80.30;;;;;;5047091;28;20493;-82
2022/04/17 03:59:31;;;;;;;5.33;3.70;;;4.60;80.70;;;;;;5049106;28;20429;-83
2022/04/17 04:02:17;;;;;;;7.87;3.70;;;4.70;81.60;;;;;;5047318;28;20451;-83
2022/04/17 04:05:03;;;;;;;7.43;2.60;;;4.60;82.40;;;;;;5047324;28;20491;-83
2022/04/17 04:07:49;;;;;;;3.30;2.43;;;4.60;81.50;;;;;;5048566;28;20510;-83
2022/04/17 04:10:35;;;;;;;3.63;2.67;;;4.70;82.20;;;;;;5047861;28;21036;-83
2022/04/17 04:13:22;;;;;;;6.77;2.97;;;4.70;82.20;;;;;;5043909;28;20419;-83
2022/04/17 04:16:07;;;;;;;4.17;2.67;;;4.80;82.20;;;;;;5047455;28;20509;-83
2022/04/17 04:18:53;;;;;;;3.33;2.73;;;4.90;81.70;;;;;;5046780;28;20504;-83
2022/04/17 04:21:47;;;;;;;3.17;2.43;;;4.70;82.20;;;;;;5045047;28;20462;-83
2022/04/17 04:24:32;;;;;;;4.20;2.60;;;4.80;82.10;;;;;;5042959;28;20450;-82
2022/04/17 04:30:23;;;;;;;3.73;2.30;;;4.70;82.00;;;;;;5049569;28;20510;-83
2022/04/17 04:33:09;;;;;;;2.90;2.47;;;4.70;82.90;;;;;;5044728;28;20443;-83
2022/04/17 04:35:54;;;;;;;8.20;2.67;;;4.50;81.40;;;;;;5045872;28;20462;-83
2022/04/17 04:38:41;;;;;;;3.73;2.80;;;4.50;83.20;;;;;;5045207;28;20451;-83
2022/04/17 04:41:27;;;;;;;5.53;2.70;;;4.40;83.80;;;;;;5046514;28;20430;-83
2022/04/17 04:44:12;;;;;;;4.30;2.93;;;4.60;83.60;;;;;;5046207;28;20451;-82
2022/04/17 04:46:59;;;;;;;6.63;2.77;;;4.40;83.60;;;;;;5045725;28;20480;-83
2022/04/17 04:49:43;;;;;;;6.90;2.80;;;4.30;85.10;;;;;;5049827;28;20957;-83
2022/04/17 04:52:30;;;;;;;6.63;2.67;;;4.20;85.60;;;;;;5047607;28;20443;-83
2022/04/17 04:55:15;;;;;;;6.70;3.30;;;4.10;86.50;;;;;;5044673;28;20445;-83
2022/04/17 04:58:02;;;;;;;5.70;3.13;;;4.30;87.00;;;;;;5048507;28;20479;-83
2022/04/17 05:00:48;;;;;;;4.70;2.90;;;4.40;86.70;;;;;;5047072;28;20614;-83
2022/04/17 05:03:35;;;;;;;4.20;3.07;;;4.50;86.80;;;;;;5043856;28;20429;-83
2022/04/17 05:06:20;;;;;;;3.60;2.57;;;4.30;86.50;;;;;;5048441;28;20514;-83
2022/04/17 05:09:06;;;;;;;4.03;2.70;;;4.40;87.50;;;;;;5046311;28;20830;-83
2022/04/17 05:11:51;;;;;;;3.67;2.80;;;4.40;88.40;;;;;;5047249;28;20436;-83
2022/04/17 05:14:41;;;;;;;5.67;2.70;;;4.50;88.00;;;;;;5042993;28;20411;-83
2022/04/17 05:17:27;;;;;;;5.33;2.73;;;4.60;87.50;;;;;;5049973;28;20963;-83
2022/04/17 05:20:15;;;;;;;5.00;2.40;;;4.70;87.30;;;;;;5048612;28;20459;-83
2022/04/17 05:23:15;;;;;;;3.53;2.60;;;4.80;88.00;;;;;;5044931;28;20463;-82
2022/04/17 05:26:02;;;;;;;2.83;2.53;;;5.00;88.50;;;;;;5046528;28;20503;-83
2022/04/17 05:28:48;;;;;;;4.77;3.10;;;5.00;87.10;;;;;;5047840;28;20448;-83
2022/04/17 05:31:34;;;;;;;9.50;3.10;;;5.30;87.30;;;;;;5049388;28;20418;-83
2022/04/17 05:34:19;;;;;;;5.47;3.33;;;5.50;85.90;;;;;;5044170;28;20418;-83
2022/04/17 05:37:07;;;;;;;6.33;3.00;;;5.70;84.40;;;;;;5047529;28;20520;-83
2022/04/17 05:39:52;;;;;;;4.20;2.60;;;5.60;84.80;;;;;;5041780;28;20467;-83
2022/04/17 05:42:38;;;;;;;5.33;3.30;;;5.50;84.70;;;;;;5046916;28;20454;-84
2022/04/17 05:45:24;;;;;;;3.40;2.57;;;5.60;84.50;;;;;;5047118;28;20993;-84
2022/04/17 05:48:10;;;;;;;5.30;3.20;;;5.60;84.30;;;;;;5038967;28;20468;-83
2022/04/17 05:50:56;;;;;;;3.80;2.70;;;5.80;84.10;;;;;;5045249;28;20447;-84
2022/04/17 05:53:43;;;;;;;5.30;3.17;;;6.00;83.90;;;;;;5044380;28;21029;-83
2022/04/17 05:56:29;;;;;;;4.13;3.10;;;6.20;83.90;;;;;;5048334;28;21246;-84
2022/04/17 05:59:15;;;;;;;5.17;3.07;;;6.50;84.60;;;;;;5048198;28;20418;-84
2022/04/17 06:02:01;;;;;;;5.13;2.50;;;6.60;83.00;;;;;;5050935;28;20502;-84
2022/04/17 06:04:47;;;;;;;6.30;2.30;;;6.80;83.40;;;;;;5046236;28;20462;-84
2022/04/17 06:07:34;;;;;;;5.03;2.97;;;6.90;83.10;;;;;;5044294;28;20426;-83
2022/04/17 06:10:21;;;;;;;5.10;3.17;;;7.10;79.60;;;;;;5047153;28;20546;-83
2022/04/17 06:13:07;;;;;;;3.80;2.70;;;7.20;79.00;;;;;;5043820;28;20546;-83
2022/04/17 06:15:52;;;;;;;6.30;4.40;;;7.30;76.50;;;;;;5043917;28;20631;-84
2022/04/17 06:18:38;;;;;;;6.70;2.90;;;7.40;77.60;;;;;;5046815;28;20538;-84
2022/04/17 06:21:24;;;;;;;4.53;2.90;;;7.60;79.30;;;;;;5046323;28;20446;-84
2022/04/17 06:24:09;;;;;;;3.77;2.80;;;7.70;80.50;;;;;;5044820;28;20806;-84
2022/04/17 06:26:57;;;;;;;5.43;3.20;;;7.80;79.50;;;;;;5047139;28;20414;-84
2022/04/17 06:29:43;;;;;;;7.30;3.33;;;8.00;78.20;;;;;;5044212;28;20506;-83
2022/04/17 06:32:28;;;;;;;5.37;3.00;;;8.20;77.60;;;;;;5041994;28;20449;-84
2022/04/17 06:35:15;;;;;;;4.90;3.00;;;8.40;77.30;;;;;;5045453;28;20438;-84
2022/04/17 06:38:02;;;;;;;4.77;3.80;;;8.60;76.70;;;;;;5039459;28;20449;-83
2022/04/17 06:40:48;;;;;;;7.00;3.13;;;8.80;76.90;;;;;;5047419;28;20439;-84
2022/04/17 06:43:36;;;;;;;4.30;2.60;;;8.90;73.40;;;;;;5041158;28;20920;-84
2022/04/17 06:46:22;;;;;;;3.53;2.70;;;9.00;66.60;;;;;;5045300;28;21012;-83
2022/04/17 06:49:08;;;;;;;3.50;2.70;;;9.20;67.70;;;;;;5045639;28;20462;-84
2022/04/17 06:51:54;;;;;;;4.50;2.83;;;9.40;69.90;;;;;;5044166;28;20450;-84
2022/04/17 06:54:40;;;;;;;5.10;2.50;;;9.50;65.20;;;;;;5045747;28;20466;-84
2022/04/17 06:57:29;;;;;;;6.13;2.43;;;9.60;59.10;;;;;;5044053;28;20456;-84
2022/04/17 07:00:18;;;;;;;3.57;2.03;;;9.60;56.60;;;;;;5044535;28;20472;-84
2022/04/17 07:03:04;;;;;;;6.67;2.60;;;9.80;56.80;;;;;;5042702;28;20421;-84
2022/04/17 07:05:49;;;;;;;7.60;2.37;;;10.00;56.40;;;;;;5046177;28;20544;-82
2022/04/17 07:08:35;;;;;;;4.13;2.50;;;10.10;55.10;;;;;;5044487;28;20451;-84
2022/04/17 07:11:23;;;;;;;3.63;2.50;;;10.20;52.70;;;;;;5043017;28;20620;-83
2022/04/17 07:14:12;;;;;;;4.33;2.10;;;10.40;51.50;;;;;;5043130;28;20937;-84
2022/04/17 07:16:59;;;;;;;3.90;2.70;;;10.50;51.40;;;;;;5044995;28;20425;-84
2022/04/17 07:19:44;;;;;;;3.27;2.10;;;10.70;49.40;;;;;;5044868;28;20585;-84
2022/04/17 07:22:30;;;;;;;3.50;2.30;;;10.80;47.80;;;;;;5043810;28;20433;-84
2022/04/17 07:25:16;;;;;;;4.40;2.23;;;10.90;45.70;;;;;;5048277;28;20552;-84
2022/04/17 07:28:02;;;;;;;3.50;2.20;;;11.00;47.10;;;;;;5049295;28;20501;-85
2022/04/17 07:30:47;;;;;;;4.70;2.40;;;11.10;47.60;;;;;;5045320;28;20445;-83
2022/04/17 07:33:35;;;;;;;3.10;2.00;;;11.10;43.80;;;;;;5050206;28;20446;-83
2022/04/17 07:36:20;;;;;;;3.67;1.87;;;11.10;43.40;;;;;;5047347;28;20483;-84
2022/04/17 07:39:06;;;;;;;3.40;2.07;;;11.10;43.80;;;;;;5047982;28;20535;-84
2022/04/17 07:41:52;;;;;;;4.60;2.80;;;11.20;39.70;;;;;;5045712;28;20425;-83
2022/04/17 07:44:37;;;;;;;3.93;1.57;;;11.20;40.30;;;;;;5043572;28;20452;-83
2022/04/17 07:47:23;;;;;;;4.00;2.07;;;11.30;41.10;;;;;;5049721;28;20416;-84
2022/04/17 07:50:12;;;;;;;4.53;1.87;;;11.40;40.90;;;;;;5049198;28;20429;-83
2022/04/17 07:52:59;;;;;;;3.70;2.07;;;11.60;40.50;;;;;;5044348;28;20519;-83
2022/04/17 07:55:45;;;;;;;6.10;2.47;;;11.70;41.00;;;;;;5047553;28;20533;-84
2022/04/17 07:58:35;;;;;;;4.83;2.23;;;11.80;39.90;;;;;;5048978;28;20830;-84
2022/04/17 08:01:20;;;;;;;3.93;2.30;;;11.90;36.30;;;;;;5045735;28;21010;-84
2022/04/17 08:04:06;;;;;;;7.80;2.20;;;11.90;38.40;;;;;;5050169;28;20451;-84
2022/04/17 08:06:54;;;;;;;7.27;2.30;;;11.90;35.60;;;;;;5048037;28;20977;-84
2022/04/17 08:09:39;;;;;;;3.13;1.60;;;12.00;38.20;;;;;;5045013;28;20984;-84
2022/04/17 08:12:25;;;;;;;3.83;1.93;;;12.00;38.70;;;;;;5044163;28;20419;-84
2022/04/17 08:15:11;;;;;;;3.27;2.33;;;12.20;35.60;;;;;;5049726;28;20653;-83
2022/04/17 08:17:57;;;;;;;3.93;1.70;;;12.20;37.60;;;;;;5050537;28;20459;-84
2022/04/17 08:20:43;;;;;;;3.63;2.17;;;12.30;33.50;;;;;;5046877;28;20439;-83
2022/04/17 08:23:30;;;;;;;3.53;1.80;;;12.30;35.20;;;;;;5044518;28;20991;-84
2022/04/17 08:26:16;;;;;;;3.10;1.60;;;12.40;37.30;;;;;;5048130;28;20482;-84
2022/04/17 08:29:01;;;;;;;4.20;2.00;;;12.50;36.10;;;;;;5049060;28;20494;-83
2022/04/17 08:31:47;;;;;;;3.53;1.83;;;12.70;34.60;;;;;;5047755;28;20460;-83
2022/04/17 08:34:32;;;;;;;2.27;1.43;;;12.70;34.80;;;;;;5042037;28;20440;-85
2022/04/17 08:37:18;;;;;;;3.60;1.60;;;12.70;32.50;;;;;;5047781;28;20445;-84
2022/04/17 08:40:07;;;;;;;4.10;1.87;;;12.80;34.30;;;;;;5044049;28;20544;-84
2022/04/17 08:42:52;;;;;;;4.50;2.43;;;12.90;34.30;;;;;;5049915;28;20406;-84
2022/04/17 08:45:39;;;;;;;2.13;1.43;;;13.10;34.40;;;;;;5049587;28;20962;-84
2022/04/17 08:48:25;;;;;;;5.77;2.00;;;13.20;34.00;;;;;;5052807;28;20428;-84
2022/04/17 08:51:11;;;;;;;3.67;1.70;;;13.30;33.30;;;;;;5041040;28;20452;-84
2022/04/17 08:53:59;;;;;;;2.80;1.53;;;13.40;31.70;;;;;;5045953;28;20456;-84
2022/04/17 08:56:46;;;;;;;4.60;1.87;;;13.60;32.20;;;;;;5053758;28;20812;-84
2022/04/17 08:59:32;;;;;;;2.80;2.20;;;13.60;32.80;;;;;;5047234;28;20418;-84
2022/04/17 09:02:18;;;;;;;4.33;1.33;;;13.70;32.90;;;;;;5049748;28;20538;-84
2022/04/17 09:05:05;;;;;;;3.73;1.70;;;13.70;31.60;;;;;;5049625;28;20838;-83
2022/04/17 09:07:53;;;;;;;4.10;1.70;;;13.80;32.90;;;;;;5052256;28;20391;-83
2022/04/17 09:10:39;;;;;;;3.13;1.90;;;13.90;32.50;;;;;;5042679;28;20522;-84
2022/04/17 09:13:31;;;;;;;2.90;1.47;;;14.00;31.40;;;;;;5046435;28;20464;-83
2022/04/17 09:16:17;;;;;;;3.90;1.40;;;14.10;30.00;;;;;;5048960;28;20472;-84
2022/04/17 09:19:13;;;;;;;2.87;1.63;;;14.20;32.20;;;;;;5041630;28;20455;-83
2022/04/17 09:22:01;;;;;;;4.70;1.57;;;14.20;28.10;;;;;;5045709;28;21059;-84
2022/04/17 09:24:46;;;;;;;3.43;1.40;;;14.20;29.70;;;;;;5045020;28;20467;-82
2022/04/17 09:27:33;;;;;;;3.00;1.50;;;14.30;30.50;;;;;;5047036;28;20446;-83
2022/04/17 09:30:28;;;;;;;2.50;1.40;;;14.20;30.10;;;;;;5036200;28;20467;-84
2022/04/17 09:33:17;;;;;;;3.83;2.00;;;14.30;29.90;;;;;;5030430;28;20450;-84
2022/04/17 09:36:03;;;;;;;3.33;1.70;;;14.40;30.00;;;;;;5032691;28;20450;-84
2022/04/17 09:38:48;;;;;;;6.80;2.80;;;14.50;29.50;;;;;;5030736;28;20699;-83
2022/04/17 09:41:34;;;;;;;3.80;1.70;;;14.60;30.00;;;;;;5032454;28;20538;-83
2022/04/17 09:44:50;;;;;;;5.13;1.57;;;14.70;31.50;;;;;;5033805;28;20468;-84
2022/04/17 09:47:37;;;;;;;2.60;1.37;;;14.80;29.20;;;;;;5036016;28;20561;-83
2022/04/17 09:50:32;;;;;;;2.90;1.47;;;14.90;31.70;;;;;;5032960;28;20448;-84
2022/04/17 09:53:31;;;;;;;2.30;1.43;;;15.10;32.10;;;;;;5029779;28;20500;-84
2022/04/17 09:56:17;;;;;;;6.50;1.93;;;15.30;29.80;;;;;;5046462;28;21027;-83
2022/04/17 09:59:16;;;;;;;3.03;1.73;;;15.40;29.20;;;;;;5032813;28;20463;-84
2022/04/17 10:02:04;;;;;;;2.57;1.40;;;15.50;28.20;;;;;;5045259;28;20456;-84
2022/04/17 10:04:51;;;;;;;3.73;1.77;;;15.50;29.00;;;;;;5047970;28;20463;-84
2022/04/17 10:07:39;;;;;;;3.80;1.57;;;15.40;29.10;;;;;;5047579;28;20554;-84
2022/04/17 10:10:25;;;;;;;3.93;1.87;;;15.40;29.10;;;;;;5037404;28;20466;-84
2022/04/17 10:13:12;;;;;;;3.20;1.40;;;15.30;29.20;;;;;;5043276;28;20443;-84
2022/04/17 10:16:01;;;;;;;2.77;1.40;;;15.40;28.80;;;;;;5046482;28;20448;-84
2022/04/17 10:18:47;;;;;;;2.40;1.20;;;15.60;29.00;;;;;;5045573;28;20961;-82
2022/04/17 10:21:36;;;;;;;2.80;1.37;;;15.70;28.50;;;;;;5047268;28;20444;-84
2022/04/17 10:24:22;;;;;;;2.50;1.40;;;15.80;29.30;;;;;;5048682;28;20423;-83
2022/04/17 10:27:13;;;;;;;5.23;1.87;;;15.90;28.40;;;;;;5040485;28;20578;-85
2022/04/17 10:30:04;;;;;;;3.40;1.50;;;15.90;28.90;;;;;;5042127;28;20479;-84
2022/04/17 10:33:31;;;;;;;5.20;1.50;;;16.00;27.10;;;;;;5045462;28;20542;-84
2022/04/17 10:36:33;;;;;;;3.27;1.30;;;16.10;28.00;;;;;;5045579;28;20476;-83
2022/04/17 10:39:25;;;;;;;2.83;1.40;;;16.20;26.40;;;;;;5039264;28;20481;-84
2022/04/17 10:42:11;;;;;;;3.60;1.40;;;16.40;27.10;;;;;;5047892;28;20448;-84
2022/04/17 10:45:03;;;;;;;3.93;1.63;;;16.50;25.30;;;;;;5046929;28;21000;-84
2022/04/17 10:48:02;;;;;;;4.73;1.30;;;16.50;24.30;;;;;;5040793;28;20459;-84
2022/04/17 10:50:51;;;;;;;3.30;1.20;;;16.60;25.10;;;;;;5044538;28;20561;-84
2022/04/17 10:53:37;;;;;;;3.60;1.23;;;16.70;25.60;;;;;;5046701;28;20458;-84
2022/04/17 10:56:24;;;;;;;2.53;1.37;;;16.70;23.70;;;;;;5050929;28;20812;-84
2022/04/17 10:59:17;;;;;;;4.43;1.00;;;16.70;24.30;;;;;;5042852;28;20451;-84
2022/04/17 11:02:04;;;;;;;4.00;1.30;;;16.90;23.90;;;;;;5051764;28;20454;-83
2022/04/17 11:04:53;;;;;;;2.87;1.40;;;17.00;24.00;;;;;;5053599;28;20451;-83
2022/04/17 11:07:38;;;;;;;2.90;2.00;;;17.10;25.70;;;;;;5049129;28;20569;-83
2022/04/17 11:10:26;;;;;;;2.07;1.30;;;17.20;24.90;;;;;;5048682;28;20439;-83
2022/04/17 11:13:13;;;;;;;4.20;1.40;;;17.20;25.10;;;;;;5049230;28;21218;-83
2022/04/17 11:16:05;;;;;;;2.90;1.23;;;17.30;26.60;;;;;;5047581;28;20883;-82
2022/04/17 11:18:52;;;;;;;3.40;1.50;;;17.30;24.70;;;;;;5046718;28;20598;-82
2022/04/17 11:21:38;;;;;;;3.50;1.50;;;17.50;26.70;;;;;;5048802;28;20433;-83
2022/04/17 11:24:24;;;;;;;3.37;1.60;;;17.70;25.90;;;;;;5051032;28;20951;-83
2022/04/17 11:27:11;;;;;;;2.37;1.07;;;18.00;25.80;;;;;;5042463;28;21005;-85
2022/04/17 11:29:58;;;;;;;2.67;1.30;;;18.10;24.90;;;;;;5049601;28;20459;-86
2022/04/17 11:32:53;;;;;;;2.13;1.10;;;18.00;23.30;;;;;;5052408;28;20439;-85
2022/04/17 11:35:41;;;;;;;2.53;1.37;;;17.90;24.40;;;;;;5052358;28;20836;-85
2022/04/17 11:38:27;;;;;;;2.87;1.10;;;18.10;25.70;;;;;;5049162;28;20503;-85
2022/04/17 11:41:15;;;;;;;4.57;1.40;;;18.10;22.40;;;;;;5051894;28;20421;-85
2022/04/17 11:44:00;;;;;;;3.17;1.43;;;18.00;21.50;;;;;;5051367;28;20574;-84
2022/04/17 11:46:48;;;;;;;3.53;1.20;;;17.90;23.70;;;;;;5049001;28;21022;-85
2022/04/17 11:49:39;;;;;;;2.43;1.30;;;18.00;21.90;;;;;;5047013;28;20596;-84
2022/04/17 11:52:25;;;;;;;3.30;1.20;;;18.10;22.10;;;;;;5048445;28;20432;-85
2022/04/17 11:55:10;;;;;;;4.43;1.70;;;18.20;22.00;;;;;;5044103;28;20541;-85
2022/04/17 11:57:56;;;;;;;3.67;1.10;;;18.30;21.90;;;;;;5048799;28;20456;-85
2022/04/17 12:00:42;;;;;;;3.10;1.40;;;18.30;21.00;;;;;;5050619;28;20882;-85
2022/04/17 12:03:36;;;;;;;4.07;1.27;;;18.30;21.90;;;;;;5044854;28;20447;-84
2022/04/17 12:06:26;;;;;;;2.90;1.50;;;18.40;23.40;;;;;;5046972;28;22220;-85
2022/04/17 12:09:12;;;;;;;6.73;1.70;;;18.60;22.50;;;;;;5041361;28;20421;-85
2022/04/17 12:11:58;;;;;;;2.23;1.17;;;18.70;21.80;;;;;;5047810;28;20439;-84
2022/04/17 12:14:45;;;;;;;2.27;1.17;;;18.80;20.50;;;;;;5058293;28;20467;-85
2022/04/17 12:17:32;;;;;;;4.67;2.17;;;18.90;21.60;;;;;;5047519;28;20495;-85
2022/04/17 12:20:19;;;;;;;3.30;1.40;;;18.90;21.30;;;;;;5053179;28;20454;-85
2022/04/17 12:23:06;;;;;;;2.30;1.23;;;19.00;20.40;;;;;;5054361;28;20483;-85
2022/04/17 12:25:53;;;;;;;5.70;1.50;;;19.10;20.40;;;;;;5047679;28;20479;-85
2022/04/17 12:28:38;;;;;;;3.77;1.30;;;19.20;21.10;;;;;;5052098;28;20467;-84
2022/04/17 12:31:24;;;;;;;3.10;1.70;;;19.30;19.20;;;;;;5052713;28;20439;-85
2022/04/17 12:34:13;;;;;;;3.87;1.53;;;19.40;19.70;;;;;;5046214;28;20546;-85
2022/04/17 12:37:00;;;;;;;4.60;1.40;;;19.50;21.30;;;;;;5045349;28;20597;-84
2022/04/17 12:39:45;;;;;;;2.87;1.50;;;19.60;20.50;;;;;;5046696;28;20443;-85
2022/04/17 12:42:31;;;;;;;3.40;1.37;;;19.70;21.40;;;;;;5047198;28;20460;-85
2022/04/17 12:45:24;;;;;;;2.27;1.27;;;19.80;21.60;;;;;;5043347;28;20466;-84
2022/04/17 12:48:10;;;;;;;1.80;1.00;;;19.90;18.40;;;;;;5051048;28;21305;-85
2022/04/17 12:50:57;;;;;;;3.00;1.70;;;19.80;20.00;;;;;;5050143;28;20443;-85
2022/04/17 12:53:44;;;;;;;3.80;1.50;;;19.90;21.50;;;;;;5051367;28;20447;-84
2022/04/17 12:56:30;;;;;;;3.27;1.37;;;20.20;21.90;;;;;;5046477;28;20481;-84
2022/04/17 12:59:20;;;;;;;4.37;1.63;;;20.40;21.30;;;;;;5048973;28;20583;-84
2022/04/17 13:02:13;;;;;;;4.90;1.63;;;20.60;21.70;;;;;;5048236;28;21010;-85
2022/04/17 13:05:00;;;;;;;2.60;1.40;;;20.80;19.50;;;;;;5047179;28;20463;-84
2022/04/17 13:07:45;;;;;;;3.43;1.47;;;20.70;19.20;;;;;;5047101;28;20533;-84
2022/04/17 13:10:33;;;;;;;4.20;1.23;;;20.70;20.70;;;;;;5045554;28;20564;-84
2022/04/17 13:13:34;;;;;;;3.33;1.80;;;20.70;18.70;;;;;;5042359;28;20456;-84
2022/04/17 13:16:20;;;;;;;6.97;1.50;;;20.60;18.20;;;;;;5045280;28;20466;-84
2022/04/17 13:19:06;;;;;;;3.23;1.30;;;20.70;19.80;;;;;;5049103;28;20432;-84
2022/04/17 13:21:52;;;;;;;3.70;1.60;;;20.90;20.50;;;;;;5046467;28;20494;-85
2022/04/17 13:24:38;;;;;;;3.33;1.80;;;21.00;21.10;;;;;;5047927;28;20645;-85
2022/04/17 13:27:25;;;;;;;3.40;1.37;;;21.20;19.40;;;;;;5048423;28;20458;-85
2022/04/17 13:30:12;;;;;;;3.90;1.50;;;21.40;17.60;;;;;;5047886;28;20447;-84
2022/04/17 13:32:58;;;;;;;5.00;2.03;;;21.50;17.20;;;;;;5048697;28;20456;-85
2022/04/17 13:35:45;;;;;;;2.63;1.30;;;21.70;18.60;;;;;;5040129;28;20491;-85
2022/04/17 13:38:30;;;;;;;4.00;1.00;;;21.60;17.80;;;;;;5051443;28;20408;-84
2022/04/17 13:41:17;;;;;;;4.03;1.87;;;21.50;18.40;;;;;;5047119;28;20449;-85
2022/04/17 13:44:04;;;;;;;2.80;1.30;;;21.60;18.60;;;;;;5051398;28;20443;-88
2022/04/17 13:46:50;;;;;;;3.43;1.63;;;21.70;18.20;;;;;;5044079;28;20443;-88
2022/04/17 13:49:36;;;;;;;3.07;1.63;;;21.70;18.00;;;;;;5047227;28;20515;-87
2022/04/17 13:52:21;;;;;;;3.40;1.30;;;21.70;19.20;;;;;;5049059;28;20444;-87
2022/04/17 13:55:09;;;;;;;4.30;1.40;;;21.70;17.40;;;;;;5046190;28;20488;-88
2022/04/17 13:57:55;;;;;;;2.90;1.70;;;21.90;17.40;;;;;;5041107;28;20489;-87
2022/04/17 14:00:42;;;;;;;1.90;0.80;;;22.00;17.50;;;;;;5044756;28;20455;-87
2022/04/17 14:03:27;;;;;;;4.57;1.40;;;22.00;16.60;;;;;;5050424;28;20451;-87
2022/04/17 14:06:13;;;;;;;2.10;1.30;;;22.10;16.50;;;;;;5044953;28;20467;-87
2022/04/17 14:08:59;;;;;;;2.73;1.00;;;22.00;16.60;;;;;;5041495;28;20462;-87
2022/04/17 14:11:47;;;;;;;2.83;1.40;;;22.10;16.70;;;;;;5049750;28;20463;-87
2022/04/17 14:14:34;;;;;;;2.30;1.10;;;22.00;16.60;;;;;;5044604;28;21090;-87
2022/04/17 14:17:21;;;;;;;2.63;1.30;;;21.70;17.20;;;;;;5045530;28;21276;-86
2022/04/17 14:20:08;;;;;;;2.67;1.03;;;21.80;17.80;;;;;;5050451;28;20451;-87
2022/04/17 14:22:54;;;;;;;3.03;1.27;;;21.90;19.10;;;;;;5047240;28;20422;-87
2022/04/17 14:25:40;;;;;;;2.27;1.10;;;22.20;16.80;;;;;;5043872;28;20546;-87
2022/04/17 14:28:26;;;;;;;3.13;1.47;;;22.20;16.90;;;;;;5046800;28;20474;-87
2022/04/17 14:31:11;;;;;;;2.70;1.13;;;22.10;17.50;;;;;;5044842;28;20446;-87
2022/04/17 14:33:58;;;;;;;2.97;1.23;;;22.10;17.10;;;;;;5041914;28;20928;-89
2022/04/17 14:36:44;;;;;;;2.87;1.10;;;22.10;17.00;;;;;;5044727;28;21006;-87
2022/04/17 14:39:30;;;;;;;4.13;1.50;;;22.10;17.40;;;;;;5044523;28;20439;-87
2022/04/17 14:42:16;;;;;;;2.20;1.10;;;22.00;17.60;;;;;;5045125;28;20976;-87
2022/04/17 14:45:02;;;;;;;6.20;1.20;;;21.70;16.30;;;;;;5041075;28;20484;-86
2022/04/17 14:47:48;;;;;;;5.47;1.50;;;21.70;17.70;;;;;;5054733;28;20816;-86
2022/04/17 14:50:35;;;;;;;2.80;1.20;;;21.50;16.20;;;;;;5050967;28;20456;-86
2022/04/17 14:53:21;;;;;;;2.07;1.40;;;21.40;17.50;;;;;;5043647;28;20459;-87
2022/04/17 14:56:09;;;;;;;2.87;1.53;;;21.30;16.60;;;;;;5050969;28;20444;-87
2022/04/17 14:58:55;;;;;;;2.93;1.20;;;21.20;17.20;;;;;;5045749;28;20490;-86
2022/04/17 15:01:40;;;;;;;3.77;1.70;;;21.10;17.30;;;;;;5047888;28;20852;-86
2022/04/17 15:04:26;;;;;;;2.77;1.40;;;21.00;18.00;;;;;;5044012;28;20463;-87
2022/04/17 15:07:13;;;;;;;2.70;1.33;;;20.90;18.60;;;;;;5043981;28;20454;-87
2022/04/17 15:09:58;;;;;;;3.73;1.80;;;20.90;18.50;;;;;;5045660;28;20443;-87
2022/04/17 15:12:44;;;;;;;3.67;1.80;;;21.00;18.00;;;;;;5048971;28;20790;-87
2022/04/17 15:15:30;;;;;;;3.30;1.20;;;21.00;17.60;;;;;;5044071;28;20606;-86
2022/04/17 15:18:16;;;;;;;3.67;1.50;;;21.10;17.60;;;;;;5046479;28;20463;-86
2022/04/17 15:21:01;;;;;;;2.73;1.30;;;21.00;18.20;;;;;;5048064;28;20448;-86
2022/04/17 15:23:49;;;;;;;3.23;1.37;;;21.00;19.20;;;;;;5041199;28;20443;-87
2022/04/17 15:26:34;;;;;;;2.77;1.30;;;21.00;19.20;;;;;;5050051;28;20435;-86
2022/04/17 15:29:20;;;;;;;3.77;1.30;;;20.90;17.90;;;;;;5043919;28;20491;-86
2022/04/17 15:32:07;;;;;;;1.90;1.10;;;20.60;18.50;;;;;;5048148;28;20444;-86
2022/04/17 15:34:53;;;;;;;3.30;1.23;;;20.40;18.30;;;;;;5044955;28;20468;-86
2022/04/17 15:37:39;;;;;;;3.77;1.33;;;20.40;18.00;;;;;;5046125;28;20599;-87
2022/04/17 15:40:27;;;;;;;2.43;1.20;;;20.30;18.50;;;;;;5046068;28;20522;-86
2022/04/17 15:49:21;;;;;;;2.90;1.40;;;20.00;19.10;;;;;;5046916;28;20574;-88
2022/04/17 15:52:07;;;;;;;7.90;1.40;;;19.90;19.20;;;;;;5046108;28;20529;-90
2022/04/17 15:54:53;;;;;;;3.60;1.57;;;19.90;18.10;;;;;;5043903;28;21113;-87
2022/04/17 15:57:40;;;;;;;2.57;1.40;;;19.80;18.30;;;;;;5046888;28;20443;-87
2022/04/17 16:00:26;;;;;;;2.10;1.30;;;19.80;17.80;;;;;;5047605;28;20439;-87
2022/04/17 16:03:11;;;;;;;2.07;1.10;;;19.70;17.60;;;;;;5041978;28;20444;-87
2022/04/17 16:05:57;;;;;;;2.80;1.37;;;19.70;18.70;;;;;;5047436;28;21122;-87
2022/04/17 16:08:43;;;;;;;3.27;1.23;;;19.60;19.10;;;;;;5043701;28;20967;-87
2022/04/17 16:11:29;;;;;;;4.30;1.60;;;19.50;18.50;;;;;;5047988;28;20949;-87
2022/04/17 16:14:16;;;;;;;2.10;1.20;;;19.30;19.00;;;;;;5050086;28;20443;-87
2022/04/17 16:17:03;;;;;;;2.70;1.20;;;19.20;19.40;;;;;;5049491;28;21079;-88
2022/04/17 16:19:49;;;;;;;2.80;1.50;;;19.20;19.40;;;;;;5046791;28;20463;-87
2022/04/17 16:22:35;;;;;;;2.33;1.30;;;19.10;18.40;;;;;;5045779;28;20447;-87
2022/04/17 16:25:22;;;;;;;6.40;2.20;;;19.00;18.70;;;;;;5049256;28;20475;-87
2022/04/17 16:28:08;;;;;;;4.60;2.23;;;19.00;19.30;;;;;;5048283;28;21138;-87
2022/04/17 16:30:54;;;;;;;4.10;1.80;;;19.10;19.00;;;;;;5051201;28;20963;-87